createdAt,value
2023-09-10T00:02:26.091Z,8.95
2023-09-10T00:04:54.120Z,9.01
2023-09-10T00:07:22.152Z,9.06
2023-09-10T00:09:50.252Z,9.17
2023-09-10T00:12:18.178Z,9.09
2023-09-10T00:14:46.932Z,9.22
2023-09-10T00:17:15.020Z,8.76
2023-09-10T00:19:43.176Z,9.01
2023-09-10T00:22:12.023Z,8.70
2023-09-10T00:24:40.089Z,9.11
2023-09-10T00:27:08.163Z,9.64
2023-09-10T00:29:36.188Z,9.54
2023-09-10T00:32:05.069Z,10.10
2023-09-10T00:34:34.202Z,9.81
2023-09-10T00:37:02.330Z,9.45
2023-09-10T00:39:30.362Z,9.27
2023-09-10T00:41:58.511Z,9.24
2023-09-10T00:44:27.087Z,9.06
2023-09-10T00:46:55.105Z,8.88
2023-09-10T00:49:23.243Z,9.57
2023-09-10T00:51:51.615Z,9.16
2023-09-10T00:54:19.714Z,9.11
2023-09-10T00:56:47.687Z,9.71
2023-09-10T00:59:15.874Z,10.53
2023-09-10T01:01:44.016Z,10.61
2023-09-10T01:04:12.199Z,10.63
2023-09-10T01:06:40.340Z,11.48
2023-09-10T01:09:08.947Z,11.44
2023-09-10T01:11:50.149Z,11.68
2023-09-10T01:14:56.255Z,11.43
2023-09-10T01:17:47.411Z,11.06
2023-09-10T01:20:27.712Z,11.40
2023-09-10T01:23:07.690Z,10.94
2023-09-10T01:25:36.181Z,11.20
2023-09-10T01:28:04.691Z,11.17
2023-09-10T01:30:33.159Z,11.06
2023-09-10T01:33:21.475Z,11.48
2023-09-10T01:36:03.500Z,11.53
2023-09-10T01:38:58.471Z,10.95
2023-09-10T01:41:26.961Z,10.93
2023-09-10T01:43:55.191Z,10.79
2023-09-10T01:46:23.745Z,11.01
2023-09-10T01:48:51.907Z,10.87
2023-09-10T01:51:20.420Z,11.16
2023-09-10T01:53:48.647Z,11.08
2023-09-10T01:56:17.646Z,10.93
2023-09-10T01:58:45.683Z,11.26
2023-09-10T02:01:13.766Z,11.61
2023-09-10T02:03:42.400Z,11.48
2023-09-10T02:06:10.556Z,11.83
2023-09-10T02:08:38.752Z,11.70
2023-09-10T02:11:07.288Z,11.51
2023-09-10T02:13:35.776Z,11.64
2023-09-10T02:16:03.981Z,11.41
2023-09-10T02:18:32.973Z,11.59
2023-09-10T02:21:00.984Z,11.81
2023-09-10T02:23:29.096Z,11.96
2023-09-10T02:25:57.164Z,11.26
2023-09-10T02:28:26.318Z,11.58
2023-09-10T02:30:54.399Z,12.04
2023-09-10T02:33:22.804Z,11.73
2023-09-10T02:35:51.185Z,11.62
2023-09-10T02:38:19.446Z,11.69
2023-09-10T02:40:47.497Z,11.77
2023-09-10T02:43:15.580Z,11.56
2023-09-10T02:45:43.757Z,11.09
2023-09-10T02:48:11.869Z,11.76
2023-09-10T02:50:40.309Z,10.92
2023-09-10T02:53:08.464Z,10.77
2023-09-10T02:55:36.662Z,11.23
2023-09-10T02:58:05.179Z,11.18
2023-09-10T03:00:33.324Z,11.17
2023-09-10T03:03:01.515Z,10.73
2023-09-10T03:05:33.075Z,11.06
2023-09-10T03:08:01.308Z,11.73
2023-09-10T03:10:29.626Z,11.36
2023-09-10T03:12:57.767Z,11.93
2023-09-10T03:15:25.853Z,11.75
2023-09-10T03:17:54.067Z,11.68
2023-09-10T03:20:22.191Z,11.40
2023-09-10T03:22:52.907Z,11.58
2023-09-10T03:25:21.045Z,12.42
2023-09-10T03:27:49.633Z,11.67
2023-09-10T03:30:18.443Z,12.13
2023-09-10T03:32:51.017Z,12.23
2023-09-10T03:35:19.487Z,12.21
2023-09-10T03:37:48.145Z,11.61
2023-09-10T03:40:16.421Z,11.67
2023-09-10T03:42:44.547Z,11.40
2023-09-10T03:45:12.761Z,10.86
2023-09-10T03:47:41.113Z,11.66
2023-09-10T03:50:12.271Z,11.54
2023-09-10T03:52:40.892Z,10.75
2023-09-10T03:55:09.334Z,10.29
2023-09-10T03:57:37.871Z,11.09
2023-09-10T04:00:07.884Z,10.67
2023-09-10T04:02:40.214Z,10.71
2023-09-10T04:05:11.642Z,11.32
2023-09-10T04:07:40.012Z,11.27
2023-09-10T04:10:09.041Z,10.91
2023-09-10T04:12:37.554Z,11.24
2023-09-10T04:15:06.461Z,10.49
2023-09-10T04:17:34.752Z,11.01
2023-09-10T04:20:08.616Z,10.93
2023-09-10T04:22:36.704Z,10.80
2023-09-10T04:25:05.309Z,11.22
2023-09-10T04:27:33.309Z,10.59
2023-09-10T04:30:02.839Z,11.00
2023-09-10T04:32:31.213Z,10.81
2023-09-10T04:34:59.394Z,11.17
2023-09-10T04:37:28.093Z,10.94
2023-09-10T04:39:56.240Z,11.24
2023-09-10T04:42:24.265Z,11.19
2023-09-10T04:44:52.420Z,11.25
2023-09-10T04:47:20.883Z,11.30
2023-09-10T04:49:49.395Z,11.29
2023-09-10T04:52:17.557Z,11.21
2023-09-10T04:54:45.851Z,11.02
2023-09-10T04:57:13.943Z,10.93
2023-09-10T04:59:42.278Z,10.55
2023-09-10T05:02:10.432Z,11.23
2023-09-10T05:04:39.051Z,10.68
2023-09-10T05:07:07.362Z,11.07
2023-09-10T05:09:35.525Z,11.06
2023-09-10T05:12:04.435Z,10.68
2023-09-10T05:14:32.508Z,10.97
2023-09-10T05:17:01.253Z,11.04
2023-09-10T05:19:29.568Z,11.02
2023-09-10T05:21:58.831Z,11.31
2023-09-10T05:24:27.223Z,11.36
2023-09-10T05:26:55.379Z,11.71
2023-09-10T05:29:23.546Z,11.41
2023-09-10T05:31:52.005Z,11.13
2023-09-10T05:34:20.082Z,11.84
2023-09-10T05:36:49.716Z,12.17
2023-09-10T05:39:17.812Z,12.70
2023-09-10T05:41:46.033Z,12.23
2023-09-10T05:44:14.180Z,13.80
2023-09-10T05:46:42.993Z,14.26
2023-09-10T05:49:12.129Z,14.23
2023-09-10T05:51:40.187Z,13.98
2023-09-10T05:54:08.313Z,13.75
2023-09-10T05:56:36.841Z,13.23
2023-09-10T05:59:05.226Z,13.67
2023-09-10T06:01:33.341Z,12.91
2023-09-10T06:04:01.757Z,13.13
2023-09-10T06:06:30.000Z,12.76
2023-09-10T06:08:58.329Z,12.82
2023-09-10T06:11:26.399Z,12.72
2023-09-10T06:13:54.608Z,12.56
2023-09-10T06:16:22.738Z,12.46
2023-09-10T06:18:52.371Z,12.33
2023-09-10T06:21:20.802Z,12.01
2023-09-10T06:23:49.587Z,11.98
2023-09-10T06:26:17.952Z,11.18
2023-09-10T06:28:46.322Z,11.85
2023-09-10T06:31:14.497Z,11.62
2023-09-10T06:33:42.755Z,11.30
2023-09-10T06:36:11.260Z,11.21
2023-09-10T06:38:39.615Z,10.69
2023-09-10T06:41:07.928Z,10.34
2023-09-10T06:43:36.356Z,10.36
2023-09-10T06:46:10.669Z,9.81
2023-09-10T06:48:38.946Z,10.05
2023-09-10T06:51:07.365Z,10.39
2023-09-10T06:53:35.827Z,10.31
2023-09-10T06:56:04.153Z,10.12
2023-09-10T06:58:32.313Z,9.93
2023-09-10T07:01:07.442Z,10.41
2023-09-10T07:03:36.299Z,10.01
2023-09-10T07:06:05.745Z,10.04
2023-09-10T07:08:36.320Z,10.50
2023-09-10T07:11:04.830Z,10.29
2023-09-10T07:13:32.902Z,9.86
2023-09-10T07:16:01.222Z,10.39
2023-09-10T07:18:34.424Z,10.45
2023-09-10T07:21:02.843Z,10.38
2023-09-10T07:23:31.007Z,10.03
2023-09-10T07:25:59.167Z,10.44
2023-09-10T07:28:27.380Z,10.09
2023-09-10T07:30:55.649Z,9.91
2023-09-10T07:33:23.844Z,10.12
2023-09-10T07:35:51.784Z,10.06
2023-09-10T07:38:19.989Z,10.01
2023-09-10T07:40:48.163Z,9.96
2023-09-10T07:43:16.276Z,9.78
2023-09-10T07:45:46.631Z,9.66
2023-09-10T07:48:14.900Z,9.11
2023-09-10T07:50:43.699Z,8.78
2023-09-10T07:53:11.855Z,8.89
2023-09-10T07:55:40.156Z,8.66
2023-09-10T07:58:08.210Z,8.39
2023-09-10T08:00:37.630Z,7.78
2023-09-10T08:03:07.762Z,7.95
2023-09-10T08:05:36.400Z,7.52
2023-09-10T08:08:04.842Z,7.83
2023-09-10T08:10:33.721Z,7.56
2023-09-10T08:13:04.511Z,7.04
2023-09-10T08:15:32.924Z,6.90
2023-09-10T08:18:01.235Z,7.11
2023-09-10T08:20:29.716Z,7.22
2023-09-10T08:22:57.979Z,6.97
2023-09-10T08:25:26.128Z,6.79
2023-09-10T08:27:54.176Z,6.73
2023-09-10T08:30:22.577Z,6.69
2023-09-10T08:32:51.312Z,6.59
2023-09-10T08:35:19.762Z,6.84
2023-09-10T08:37:48.091Z,6.40
2023-09-10T08:40:16.810Z,6.58
2023-09-10T08:42:54.310Z,6.42
2023-09-10T08:45:22.858Z,6.73
2023-09-10T08:47:51.035Z,6.37
2023-09-10T08:50:19.355Z,6.49
2023-09-10T08:52:49.677Z,6.23
2023-09-10T08:55:17.941Z,6.43
2023-09-10T08:57:46.741Z,6.12
2023-09-10T09:00:15.001Z,6.43
2023-09-10T09:02:47.111Z,6.28
2023-09-10T09:05:15.311Z,6.29
2023-09-10T09:07:47.410Z,6.14
2023-09-10T09:10:20.209Z,6.17
2023-09-10T09:12:50.006Z,5.98
2023-09-10T09:15:18.067Z,5.70
2023-09-10T09:17:46.218Z,6.02
2023-09-10T09:20:14.775Z,6.42
2023-09-10T09:22:43.607Z,6.33
2023-09-10T09:25:11.795Z,5.79
2023-09-10T09:27:39.939Z,5.63
2023-09-10T09:30:08.434Z,6.00
2023-09-10T09:32:37.584Z,5.87
2023-09-10T09:35:07.021Z,6.04
2023-09-10T09:37:36.088Z,6.37
2023-09-10T09:40:05.240Z,5.74
2023-09-10T09:42:33.360Z,6.03
2023-09-10T09:45:02.557Z,5.87
2023-09-10T09:47:33.819Z,5.89
2023-09-10T09:50:02.160Z,6.17
2023-09-10T09:52:30.354Z,6.05
2023-09-10T09:54:58.451Z,5.83
2023-09-10T09:57:26.676Z,5.82
2023-09-10T09:59:54.930Z,6.08
2023-09-10T10:02:23.082Z,7.33
2023-09-10T10:04:51.346Z,8.44
2023-09-10T10:07:24.697Z,11.67
2023-09-10T10:09:56.247Z,13.03
2023-09-10T10:12:24.335Z,12.45
2023-09-10T10:14:52.458Z,11.83
2023-09-10T10:17:20.650Z,10.85
2023-09-10T10:19:48.770Z,8.85
2023-09-10T10:22:16.876Z,9.48
2023-09-10T10:24:45.861Z,6.32
2023-09-10T10:27:16.868Z,7.14
2023-09-10T10:29:44.939Z,7.58
2023-09-10T10:32:36.256Z,10.36
2023-09-10T10:35:08.366Z,8.71
2023-09-10T10:38:00.452Z,7.17
2023-09-10T10:40:40.419Z,6.42
2023-09-10T10:43:10.586Z,5.34
2023-09-10T10:45:38.797Z,6.53
2023-09-10T10:48:14.939Z,8.62
2023-09-10T10:50:43.683Z,5.70
2023-09-10T10:53:19.059Z,4.82
2023-09-10T10:55:57.806Z,4.81
2023-09-10T10:58:25.982Z,6.48
2023-09-10T11:00:55.350Z,5.94
2023-09-10T11:03:23.971Z,5.90
2023-09-10T11:05:55.689Z,6.86
2023-09-10T11:08:30.728Z,5.46
2023-09-10T11:10:59.665Z,5.57
2023-09-10T11:13:27.738Z,5.33
2023-09-10T11:16:05.399Z,5.45
2023-09-10T11:18:37.481Z,6.11
2023-09-10T11:21:06.926Z,5.77
2023-09-10T11:23:35.931Z,5.49
2023-09-10T11:26:16.189Z,6.45
2023-09-10T11:28:45.901Z,6.08
2023-09-10T11:31:38.537Z,6.43
2023-09-10T11:34:19.097Z,5.67
2023-09-10T11:37:03.754Z,5.77
2023-09-10T11:39:33.036Z,5.29
2023-09-10T11:42:03.240Z,5.27
2023-09-10T11:44:31.637Z,5.62
2023-09-10T11:46:59.971Z,5.90
2023-09-10T11:49:28.218Z,6.38
2023-09-10T11:51:59.324Z,5.78
2023-09-10T11:54:28.016Z,5.38
2023-09-10T11:56:59.656Z,8.42
2023-09-10T11:59:31.632Z,6.56
2023-09-10T12:02:00.342Z,5.19
2023-09-10T12:04:37.778Z,6.46
2023-09-10T12:07:05.945Z,6.09
2023-09-10T12:09:34.043Z,5.54
2023-09-10T12:12:15.235Z,6.66
2023-09-10T12:14:43.337Z,5.94
2023-09-10T12:17:11.524Z,6.94
2023-09-10T12:19:39.662Z,6.64
2023-09-10T12:22:10.887Z,8.20
2023-09-10T12:24:42.333Z,5.70
2023-09-10T12:27:12.757Z,5.16
2023-09-10T12:29:41.608Z,5.42
2023-09-10T12:32:10.107Z,5.93
2023-09-10T12:34:38.793Z,6.65
2023-09-10T12:37:06.916Z,5.36
2023-09-10T12:39:35.058Z,5.54
2023-09-10T12:42:03.466Z,9.18
2023-09-10T12:44:32.503Z,6.18
2023-09-10T12:47:01.010Z,5.53
2023-09-10T12:49:29.487Z,5.52
2023-09-10T12:51:57.526Z,5.42
2023-09-10T12:54:25.560Z,5.59
2023-09-10T12:56:53.627Z,7.00
2023-09-10T12:59:22.293Z,9.99
2023-09-10T13:01:51.175Z,10.25
2023-09-10T13:04:19.779Z,6.49
2023-09-10T13:06:48.202Z,5.53
2023-09-10T13:09:16.231Z,5.60
2023-09-10T13:11:44.289Z,5.93
2023-09-10T13:14:12.417Z,5.55
2023-09-10T13:16:40.527Z,5.31
2023-09-10T13:19:09.176Z,5.50
2023-09-10T13:21:37.348Z,5.25
2023-09-10T13:24:05.621Z,5.72
2023-09-10T13:26:33.802Z,5.60
2023-09-10T13:29:01.916Z,5.40
2023-09-10T13:31:30.017Z,5.53
2023-09-10T13:33:58.028Z,5.74
2023-09-10T13:36:27.188Z,6.39
2023-09-10T13:38:55.430Z,5.99
2023-09-10T13:41:24.059Z,5.90
2023-09-10T13:43:52.648Z,6.14
2023-09-10T13:46:20.672Z,5.97
2023-09-10T13:48:49.344Z,5.88
2023-09-10T13:51:17.522Z,6.19
2023-09-10T13:53:45.913Z,6.30
2023-09-10T13:56:14.023Z,6.26
2023-09-10T13:58:42.150Z,6.89
2023-09-10T14:01:11.160Z,5.93
2023-09-10T14:03:39.913Z,5.81
2023-09-10T14:06:10.266Z,6.17
2023-09-10T14:08:39.093Z,6.56
2023-09-10T14:11:07.630Z,6.37
2023-09-10T14:13:35.770Z,6.32
2023-09-10T14:16:03.950Z,6.17
2023-09-10T14:18:33.259Z,6.02
2023-09-10T14:21:01.250Z,6.06
2023-09-10T14:23:29.668Z,6.30
2023-09-10T14:25:58.578Z,6.26
2023-09-10T14:28:26.905Z,6.55
2023-09-10T14:30:55.232Z,6.20
2023-09-10T14:33:24.608Z,6.54
2023-09-10T14:35:53.676Z,6.44
2023-09-10T14:38:21.862Z,6.30
2023-09-10T14:40:49.912Z,6.64
2023-09-10T14:43:18.068Z,6.36
2023-09-10T14:45:46.256Z,6.64
2023-09-10T14:48:14.656Z,6.36
2023-09-10T14:50:42.786Z,6.62
2023-09-10T14:53:10.992Z,6.57
2023-09-10T14:55:39.143Z,6.64
2023-09-10T14:58:09.387Z,6.86
2023-09-10T15:00:39.063Z,7.22
2023-09-10T15:03:07.323Z,6.62
2023-09-10T15:05:35.853Z,6.68
2023-09-10T15:08:05.183Z,6.63
2023-09-10T15:10:33.325Z,6.57
2023-09-10T15:13:02.022Z,6.80
2023-09-10T15:15:30.286Z,6.94
2023-09-10T15:17:58.396Z,6.81
2023-09-10T15:20:27.213Z,6.36
2023-09-10T15:22:55.534Z,6.78
2023-09-10T15:25:23.791Z,6.72
2023-09-10T15:27:51.989Z,6.61
2023-09-10T15:30:20.100Z,6.34
2023-09-10T15:32:48.331Z,6.62
2023-09-10T15:35:16.560Z,6.48
2023-09-10T15:37:44.736Z,6.91
2023-09-10T15:40:12.928Z,6.65
2023-09-10T15:42:40.929Z,6.50
2023-09-10T15:45:09.860Z,6.48
2023-09-10T15:47:38.012Z,6.70
2023-09-10T15:50:07.137Z,6.80
2023-09-10T15:52:35.408Z,12.42
2023-09-10T15:55:05.138Z,8.24
2023-09-10T15:57:33.226Z,6.59
2023-09-10T16:00:01.401Z,6.80
2023-09-10T16:02:32.944Z,6.76
2023-09-10T16:05:01.419Z,6.79
2023-09-10T16:07:29.481Z,6.82
2023-09-10T16:09:57.822Z,6.64
2023-09-10T16:12:25.997Z,7.04
2023-09-10T16:14:54.049Z,6.98
2023-09-10T16:17:22.186Z,6.64
2023-09-10T16:19:51.299Z,7.52
2023-09-10T16:22:30.008Z,7.22
2023-09-10T16:24:58.438Z,9.11
2023-09-10T16:27:26.650Z,11.23
2023-09-10T16:29:55.244Z,9.31
2023-09-10T16:32:23.383Z,9.15
2023-09-10T16:34:51.578Z,8.00
2023-09-10T16:37:19.787Z,7.78
2023-09-10T16:39:47.873Z,7.27
2023-09-10T16:42:16.023Z,6.90
2023-09-10T16:44:44.232Z,6.93
2023-09-10T16:47:12.295Z,7.30
2023-09-10T16:49:41.286Z,7.85
2023-09-10T16:52:09.304Z,8.18
2023-09-10T16:54:37.395Z,9.25
2023-09-10T16:57:05.660Z,9.59
2023-09-10T16:59:33.921Z,9.23
2023-09-10T17:02:02.119Z,9.06
2023-09-10T17:04:31.009Z,8.46
2023-09-10T17:06:58.986Z,7.98
2023-09-10T17:09:27.017Z,8.45
2023-09-10T17:11:55.202Z,8.30
2023-09-10T17:14:23.261Z,8.40
2023-09-10T17:16:51.449Z,8.13
2023-09-10T17:19:19.465Z,8.31
2023-09-10T17:21:47.642Z,7.59
2023-09-10T17:24:15.989Z,7.48
2023-09-10T17:26:44.152Z,8.10
2023-09-10T17:29:12.282Z,7.90
2023-09-10T17:31:40.380Z,7.93
2023-09-10T17:34:08.406Z,7.34
2023-09-10T17:36:36.579Z,7.23
2023-09-10T17:39:05.039Z,7.52
2023-09-10T17:41:33.193Z,7.69
2023-09-10T17:44:03.658Z,7.79
2023-09-10T17:46:33.606Z,7.54
2023-09-10T17:49:01.716Z,7.57
2023-09-10T17:51:29.921Z,7.75
2023-09-10T17:53:58.157Z,7.39
2023-09-10T17:56:26.425Z,7.73
2023-09-10T17:58:55.647Z,7.25
2023-09-10T18:01:26.648Z,7.32
2023-09-10T18:03:55.094Z,7.32
2023-09-10T18:06:23.578Z,7.49
2023-09-10T18:08:51.756Z,7.93
2023-09-10T18:11:19.930Z,8.30
2023-09-10T18:13:50.963Z,8.13
2023-09-10T18:16:19.093Z,7.72
2023-09-10T18:18:49.730Z,7.74
2023-09-10T18:21:17.849Z,7.54
2023-09-10T18:23:46.065Z,7.62
2023-09-10T18:26:14.114Z,8.04
2023-09-10T18:28:42.712Z,9.16
2023-09-10T18:31:10.826Z,8.85
2023-09-10T18:33:39.237Z,10.84
2023-09-10T18:36:07.622Z,22.01
2023-09-10T18:38:41.611Z,12.93
2023-09-10T18:41:09.702Z,10.84
2023-09-10T18:43:38.099Z,11.68
2023-09-10T18:46:06.722Z,12.31
2023-09-10T18:48:34.889Z,11.64
2023-09-10T18:51:04.192Z,10.72
2023-09-10T18:53:32.842Z,10.68
2023-09-10T18:56:01.031Z,10.31
2023-09-10T18:58:31.129Z,10.19
2023-09-10T19:01:02.343Z,9.83
2023-09-10T19:03:30.512Z,9.58
2023-09-10T19:05:59.898Z,9.00
2023-09-10T19:08:28.727Z,9.32
2023-09-10T19:10:57.584Z,9.38
2023-09-10T19:13:25.872Z,10.12
2023-09-10T19:15:54.184Z,10.11
2023-09-10T19:18:22.322Z,9.85
2023-09-10T19:20:50.862Z,9.95
2023-09-10T19:23:18.956Z,10.13
2023-09-10T19:25:47.417Z,9.86
2023-09-10T19:28:17.777Z,9.94
2023-09-10T19:30:45.998Z,10.31
2023-09-10T19:33:14.114Z,11.21
2023-09-10T19:35:42.305Z,11.20
2023-09-10T19:38:10.426Z,10.41
2023-09-10T19:40:38.457Z,9.95
2023-09-10T19:43:06.887Z,10.44
2023-09-10T19:45:34.914Z,9.88
2023-09-10T19:48:05.280Z,9.94
2023-09-10T19:50:33.305Z,9.70
2023-09-10T19:53:01.312Z,10.40
2023-09-10T19:55:29.456Z,9.77
2023-09-10T19:57:57.625Z,9.45
2023-09-10T20:00:26.997Z,9.48
2023-09-10T20:02:55.237Z,9.49
2023-09-10T20:05:23.712Z,9.16
2023-09-10T20:07:51.835Z,9.50
2023-09-10T20:10:21.879Z,10.39
2023-09-10T20:12:50.268Z,10.99
2023-09-10T20:15:18.402Z,11.55
2023-09-10T20:17:46.558Z,13.27
2023-09-10T20:20:15.214Z,13.80
2023-09-10T20:22:43.877Z,13.53
2023-09-10T20:25:11.810Z,13.23
2023-09-10T20:27:41.113Z,12.04
2023-09-10T20:30:09.493Z,11.90
2023-09-10T20:32:37.685Z,10.77
2023-09-10T20:35:06.559Z,10.48
2023-09-10T20:37:34.651Z,10.21
2023-09-10T20:40:04.561Z,10.14
2023-09-10T20:42:32.927Z,10.52
2023-09-10T20:45:01.166Z,9.71
2023-09-10T20:47:29.788Z,9.52
2023-09-10T20:49:58.055Z,9.37
2023-09-10T20:52:26.667Z,9.83
2023-09-10T20:54:55.970Z,9.42
2023-09-10T20:57:24.024Z,8.98
2023-09-10T20:59:52.165Z,9.35
2023-09-10T21:02:21.520Z,9.37
2023-09-10T21:04:49.739Z,8.99
2023-09-10T21:07:18.347Z,9.02
2023-09-10T21:09:46.576Z,8.97
2023-09-10T21:12:14.607Z,8.56
2023-09-10T21:14:44.013Z,8.70
2023-09-10T21:17:13.186Z,8.58
2023-09-10T21:19:41.462Z,8.89
2023-09-10T21:22:09.478Z,9.01
2023-09-10T21:24:37.956Z,9.18
2023-09-10T21:27:06.109Z,8.56
2023-09-10T21:29:36.730Z,8.76
2023-09-10T21:32:05.436Z,8.86
2023-09-10T21:34:33.429Z,8.85
2023-09-10T21:37:01.557Z,8.99
2023-09-10T21:39:29.678Z,8.64
2023-09-10T21:41:57.683Z,8.43
2023-09-10T21:44:25.683Z,9.05
2023-09-10T21:46:53.988Z,8.95
2023-09-10T21:49:25.640Z,8.90
2023-09-10T21:51:53.908Z,8.72
2023-09-10T21:54:25.575Z,8.91
2023-09-10T21:56:53.659Z,8.75
2023-09-10T21:59:21.773Z,8.83
2023-09-10T22:01:49.854Z,9.21
2023-09-10T22:04:17.980Z,9.28
2023-09-10T22:06:46.201Z,9.24
2023-09-10T22:09:14.242Z,9.57
2023-09-10T22:11:42.219Z,8.98
2023-09-10T22:14:10.510Z,9.59
2023-09-10T22:16:40.212Z,9.32
2023-09-10T22:19:09.639Z,9.61
2023-09-10T22:21:38.152Z,9.13
2023-09-10T22:24:06.454Z,9.78
2023-09-10T22:26:34.541Z,9.79
2023-09-10T22:29:02.836Z,10.00
2023-09-10T22:31:31.413Z,9.75
2023-09-10T22:33:59.498Z,9.76
2023-09-10T22:36:37.520Z,9.39
2023-09-10T22:39:06.550Z,9.55
2023-09-10T22:41:34.712Z,8.78
2023-09-10T22:44:02.734Z,9.29
2023-09-10T22:46:30.946Z,9.94
2023-09-10T22:48:59.001Z,9.06
2023-09-10T22:51:27.396Z,9.89
2023-09-10T22:53:55.450Z,9.23
2023-09-10T22:56:24.677Z,9.09
2023-09-10T22:58:52.808Z,9.42
2023-09-10T23:01:22.000Z,9.25
2023-09-10T23:03:50.468Z,9.41
2023-09-10T23:06:18.742Z,9.45
2023-09-10T23:08:46.897Z,9.41
2023-09-10T23:11:15.117Z,9.63
2023-09-10T23:13:43.518Z,9.31
2023-09-10T23:16:11.575Z,9.01
2023-09-10T23:18:40.172Z,8.87
2023-09-10T23:21:08.578Z,8.99
2023-09-10T23:23:38.006Z,8.84
2023-09-10T23:26:08.026Z,8.92
2023-09-10T23:28:36.312Z,9.09
2023-09-10T23:31:04.509Z,9.01
2023-09-10T23:33:32.887Z,8.76
2023-09-10T23:36:01.066Z,9.13
2023-09-10T23:38:29.579Z,8.74
2023-09-10T23:40:58.671Z,8.83
2023-09-10T23:43:27.149Z,8.86
2023-09-10T23:45:55.363Z,8.84
2023-09-10T23:48:23.727Z,8.76
2023-09-10T23:50:52.537Z,9.00
2023-09-10T23:53:20.816Z,8.83
2023-09-10T23:55:49.162Z,8.54
2023-09-10T23:58:17.318Z,8.86
